createdAt,value
2018-09-03T00:02:00.389Z,18.03
2018-09-03T00:04:28.860Z,18.60
2018-09-03T00:06:57.344Z,20.50
2018-09-03T00:09:26.158Z,17.63
2018-09-03T00:11:54.586Z,18.73
2018-09-03T00:14:23.056Z,12.80
2018-09-03T00:16:51.509Z,19.33
2018-09-03T00:19:19.957Z,19.03
2018-09-03T00:21:48.392Z,17.57
2018-09-03T00:24:16.997Z,17.80
2018-09-03T00:26:45.433Z,17.33
2018-09-03T00:29:13.948Z,22.07
2018-09-03T00:31:47.733Z,17.17
2018-09-03T00:34:21.688Z,19.97
2018-09-03T00:36:55.412Z,19.50
2018-09-03T00:39:29.026Z,20.17
2018-09-03T00:42:02.988Z,16.77
2018-09-03T00:44:36.859Z,21.80
2018-09-03T00:47:08.186Z,18.00
2018-09-03T00:49:36.665Z,16.67
2018-09-03T00:52:05.136Z,24.20
2018-09-03T00:54:34.222Z,26.30
2018-09-03T00:57:02.696Z,18.87
2018-09-03T00:59:31.122Z,24.30
2018-09-03T01:01:59.597Z,21.90
2018-09-03T01:04:28.050Z,18.67
2018-09-03T01:06:56.530Z,19.77
2018-09-03T01:09:25.025Z,22.17
2018-09-03T01:11:53.468Z,23.40
2018-09-03T01:14:22.242Z,28.23
2018-09-03T01:16:50.709Z,24.60
2018-09-03T01:19:19.181Z,25.20
2018-09-03T01:21:47.638Z,20.80
2018-09-03T01:24:16.134Z,21.07
2018-09-03T01:26:44.635Z,27.03
2018-09-03T01:29:13.135Z,21.10
2018-09-03T01:31:41.593Z,27.30
2018-09-03T01:34:10.045Z,25.90
2018-09-03T01:36:38.514Z,23.40
2018-09-03T01:39:08.649Z,28.37
2018-09-03T01:41:37.198Z,20.03
2018-09-03T01:44:05.910Z,22.17
2018-09-03T01:46:34.503Z,19.83
2018-09-03T01:49:03.120Z,20.40
2018-09-03T01:51:32.001Z,26.80
2018-09-03T01:54:00.584Z,29.27
2018-09-03T01:56:29.158Z,27.07
2018-09-03T01:58:57.926Z,23.43
2018-09-03T02:01:27.238Z,35.40
2018-09-03T02:03:55.817Z,29.93
2018-09-03T02:06:24.477Z,32.73
2018-09-03T02:08:53.067Z,30.70
2018-09-03T02:11:21.659Z,26.30
2018-09-03T02:13:50.330Z,22.60
2018-09-03T02:16:19.283Z,23.97
2018-09-03T02:18:47.863Z,31.97
2018-09-03T02:21:16.527Z,25.10
2018-09-03T02:23:45.151Z,32.10
2018-09-03T02:26:13.733Z,27.50
2018-09-03T02:28:42.322Z,30.17
2018-09-03T02:31:10.933Z,25.63
2018-09-03T02:33:39.678Z,32.13
2018-09-03T02:36:08.347Z,24.50
2018-09-03T02:38:36.927Z,30.20
2018-09-03T02:41:05.907Z,28.60
2018-09-03T02:43:34.606Z,30.73
2018-09-03T02:46:03.167Z,22.83
2018-09-03T02:48:31.790Z,27.37
2018-09-03T02:51:00.377Z,25.00
2018-09-03T02:53:28.978Z,26.90
2018-09-03T02:55:57.588Z,28.53
2018-09-03T02:58:26.191Z,32.70
2018-09-03T03:00:54.801Z,22.63
2018-09-03T03:03:23.405Z,30.50
2018-09-03T03:05:52.039Z,26.37
2018-09-03T03:08:20.660Z,18.63
2018-09-03T03:10:49.267Z,21.87
2018-09-03T03:13:17.939Z,18.87
2018-09-03T03:15:46.500Z,29.17
2018-09-03T03:18:15.087Z,28.73
2018-09-03T03:20:43.670Z,21.63
2018-09-03T03:23:12.279Z,28.97
2018-09-03T03:25:40.842Z,29.47
2018-09-03T03:28:09.473Z,35.30
2018-09-03T03:30:38.449Z,27.43
2018-09-03T03:33:07.058Z,23.37
2018-09-03T03:35:35.712Z,34.93
2018-09-03T03:38:04.298Z,33.87
2018-09-03T03:40:32.891Z,34.47
2018-09-03T03:43:01.474Z,28.60
2018-09-03T03:45:30.089Z,27.13
2018-09-03T03:47:58.678Z,35.37
2018-09-03T03:50:27.293Z,23.93
2018-09-03T03:52:55.986Z,34.07
2018-09-03T03:55:24.606Z,30.00
2018-09-03T03:57:53.455Z,29.80
2018-09-03T04:00:22.077Z,30.43
2018-09-03T04:02:50.666Z,28.40
2018-09-03T04:05:19.255Z,31.87
2018-09-03T04:07:47.837Z,34.70
2018-09-03T04:10:16.464Z,33.23
2018-09-03T04:12:50.438Z,28.47
2018-09-03T04:15:19.062Z,32.90
2018-09-03T04:17:47.982Z,28.73
2018-09-03T04:20:16.600Z,31.70
2018-09-03T04:22:45.194Z,26.03
2018-09-03T04:25:13.786Z,28.13
2018-09-03T04:27:42.349Z,25.87
2018-09-03T04:30:10.970Z,26.87
2018-09-03T04:32:39.583Z,31.00
2018-09-03T04:35:08.234Z,30.50
2018-09-03T04:37:36.804Z,23.57
2018-09-03T04:40:05.723Z,32.63
2018-09-03T04:42:34.350Z,29.10
2018-09-03T04:45:02.974Z,31.13
2018-09-03T04:47:31.543Z,31.80
2018-09-03T04:50:00.148Z,28.47
2018-09-03T04:52:28.745Z,26.53
2018-09-03T04:54:57.370Z,23.73
2018-09-03T04:57:25.971Z,25.73
2018-09-03T04:59:54.919Z,22.07
2018-09-03T05:02:23.545Z,29.90
2018-09-03T05:04:52.166Z,24.10
2018-09-03T05:07:20.747Z,25.37
2018-09-03T05:09:49.327Z,25.60
2018-09-03T05:12:17.945Z,26.47
2018-09-03T05:14:46.520Z,25.63
2018-09-03T05:17:15.279Z,24.63
2018-09-03T05:19:43.899Z,23.47
2018-09-03T05:22:12.494Z,27.43
2018-09-03T05:24:41.114Z,24.07
2018-09-03T05:27:09.767Z,23.50
2018-09-03T05:29:38.441Z,24.90
2018-09-03T05:32:07.017Z,25.70
2018-09-03T05:34:35.926Z,26.57
2018-09-03T05:37:04.653Z,26.30
2018-09-03T05:39:33.259Z,23.53
2018-09-03T05:42:01.835Z,27.20
2018-09-03T05:44:30.432Z,23.00
2018-09-03T05:46:59.010Z,21.70
2018-09-03T05:49:27.578Z,22.77
2018-09-03T05:51:56.459Z,25.07
2018-09-03T05:54:25.046Z,26.80
2018-09-03T05:56:53.622Z,21.90
2018-09-03T05:59:22.210Z,23.73
2018-09-03T06:01:50.873Z,23.10
2018-09-03T06:04:19.522Z,22.13
2018-09-03T06:06:48.107Z,20.57
2018-09-03T06:09:16.689Z,20.53
2018-09-03T06:11:45.538Z,21.20
2018-09-03T06:14:14.127Z,23.47
2018-09-03T06:16:42.737Z,21.77
2018-09-03T06:19:11.556Z,21.93
2018-09-03T06:21:40.237Z,20.37
2018-09-03T06:24:08.870Z,20.77
2018-09-03T06:26:37.526Z,23.97
2018-09-03T06:29:06.130Z,23.77
2018-09-03T06:31:35.104Z,24.40
2018-09-03T06:34:03.703Z,22.83
2018-09-03T06:36:32.307Z,22.87
2018-09-03T06:39:00.969Z,24.23
2018-09-03T06:41:32.237Z,19.83
2018-09-03T06:44:00.821Z,22.30
2018-09-03T06:46:29.419Z,20.70
2018-09-03T06:48:58.007Z,19.43
2018-09-03T06:51:26.634Z,18.53
2018-09-03T06:53:55.346Z,21.37
2018-09-03T06:56:23.957Z,19.73
2018-09-03T06:58:52.563Z,21.40
2018-09-03T07:01:21.171Z,20.53
2018-09-03T07:03:49.758Z,19.53
2018-09-03T07:06:18.363Z,23.63
2018-09-03T07:08:46.962Z,21.17
2018-09-03T07:11:15.554Z,17.07
2018-09-03T07:13:44.109Z,20.97
2018-09-03T07:16:12.712Z,28.20
2018-09-03T07:18:41.303Z,21.43
2018-09-03T07:21:09.946Z,17.90
2018-09-03T07:23:38.533Z,17.80
2018-09-03T07:26:07.485Z,16.63
2018-09-03T07:28:36.109Z,16.07
2018-09-03T07:31:04.715Z,18.03
2018-09-03T07:33:33.271Z,22.10
2018-09-03T07:36:01.842Z,15.23
2018-09-03T07:38:30.419Z,19.47
2018-09-03T07:40:59.046Z,20.97
2018-09-03T07:43:27.675Z,17.90
2018-09-03T07:45:56.285Z,20.17
2018-09-03T07:48:24.887Z,17.90
2018-09-03T07:50:53.579Z,18.63
2018-09-03T07:53:22.144Z,18.00
2018-09-03T07:55:50.727Z,17.80
2018-09-03T07:58:19.310Z,16.00
2018-09-03T08:00:47.920Z,16.23
2018-09-03T08:03:16.493Z,17.97
2018-09-03T08:05:45.095Z,16.60
2018-09-03T08:08:13.673Z,18.60
2018-09-03T08:10:42.281Z,17.70
2018-09-03T08:13:15.053Z,16.53
2018-09-03T08:15:43.687Z,19.20
2018-09-03T08:18:12.266Z,17.50
2018-09-03T08:20:40.869Z,15.10
2018-09-03T08:23:09.481Z,14.57
2018-09-03T08:25:38.059Z,16.90
2018-09-03T08:28:06.916Z,15.60
2018-09-03T08:30:35.775Z,16.30
2018-09-03T08:33:04.386Z,15.50
2018-09-03T08:35:33.046Z,13.07
2018-09-03T08:38:01.645Z,14.50
2018-09-03T08:40:30.231Z,15.30
2018-09-03T08:42:58.846Z,13.50
2018-09-03T08:45:27.534Z,14.83
2018-09-03T08:47:56.157Z,14.97
2018-09-03T08:50:24.918Z,12.90
2018-09-03T08:52:53.492Z,22.17
2018-09-03T08:55:22.249Z,15.27
2018-09-03T08:57:50.855Z,14.37
2018-09-03T09:00:19.423Z,13.27
2018-09-03T09:02:47.990Z,13.37
2018-09-03T09:05:16.575Z,13.70
2018-09-03T09:07:45.151Z,13.77
2018-09-03T09:10:14.039Z,12.67
2018-09-03T09:12:42.610Z,14.00
2018-09-03T09:15:11.222Z,15.93
2018-09-03T09:17:40.554Z,16.10
2018-09-03T09:20:09.111Z,14.53
2018-09-03T09:22:37.723Z,16.37
2018-09-03T09:25:06.512Z,13.93
2018-09-03T09:27:35.094Z,13.70
2018-09-03T09:30:04.533Z,13.10
2018-09-03T09:32:33.149Z,14.80
2018-09-03T09:35:01.997Z,14.50
2018-09-03T09:37:30.580Z,13.50
2018-09-03T09:39:59.160Z,15.53
2018-09-03T09:42:27.769Z,14.17
2018-09-03T09:44:56.330Z,13.97
2018-09-03T09:47:24.919Z,12.87
2018-09-03T09:49:53.662Z,14.53
2018-09-03T09:52:22.259Z,14.30
2018-09-03T09:54:50.901Z,12.93
2018-09-03T09:57:19.507Z,16.60
2018-09-03T09:59:48.110Z,12.63
2018-09-03T10:02:16.706Z,11.80
2018-09-03T10:04:45.309Z,13.03
2018-09-03T10:07:13.903Z,13.93
2018-09-03T10:09:42.498Z,13.80
2018-09-03T10:12:11.122Z,11.77
2018-09-03T10:14:39.699Z,14.37
2018-09-03T10:17:08.294Z,12.13
2018-09-03T10:19:36.877Z,11.87
2018-09-03T10:22:05.514Z,12.67
2018-09-03T10:24:34.141Z,12.93
2018-09-03T10:27:02.781Z,12.27
2018-09-03T10:29:31.429Z,14.90
2018-09-03T10:32:00.124Z,13.10
2018-09-03T10:34:28.674Z,12.80
2018-09-03T10:36:57.278Z,12.60
2018-09-03T10:39:25.878Z,13.90
2018-09-03T10:41:54.449Z,14.47
2018-09-03T10:44:23.435Z,11.30
2018-09-03T10:46:52.086Z,11.50
2018-09-03T10:49:20.665Z,12.43
2018-09-03T10:51:49.241Z,12.00
2018-09-03T10:54:18.011Z,12.30
2018-09-03T10:56:46.776Z,12.37
2018-09-03T10:59:15.405Z,12.80
2018-09-03T11:01:43.982Z,11.53
2018-09-03T11:04:12.599Z,11.77
2018-09-03T11:06:41.163Z,11.53
2018-09-03T11:09:11.153Z,11.47
2018-09-03T11:11:40.225Z,12.03
2018-09-03T11:14:09.550Z,11.40
2018-09-03T11:16:38.691Z,12.07
2018-09-03T11:19:07.398Z,12.50
2018-09-03T11:21:36.127Z,11.67
2018-09-03T11:24:04.611Z,12.50
2018-09-03T11:26:33.206Z,11.17
2018-09-03T11:29:01.825Z,11.57
2018-09-03T11:31:30.830Z,11.50
2018-09-03T11:33:59.416Z,11.97
2018-09-03T11:36:28.267Z,12.23
2018-09-03T11:38:56.882Z,11.47
2018-09-03T11:41:25.442Z,12.40
2018-09-03T11:43:54.079Z,11.80
2018-09-03T11:46:22.639Z,11.93
2018-09-03T11:48:51.247Z,12.60
2018-09-03T11:51:20.643Z,12.23
2018-09-03T11:53:49.310Z,10.03
2018-09-03T11:56:17.914Z,12.13
2018-09-03T11:58:46.493Z,13.17
2018-09-03T12:01:15.130Z,12.23
2018-09-03T12:03:43.728Z,11.40
2018-09-03T12:06:12.563Z,11.87
2018-09-03T12:08:41.176Z,13.10
2018-09-03T12:11:09.734Z,10.57
2018-09-03T12:13:38.354Z,12.20
2018-09-03T12:16:10.855Z,10.40
2018-09-03T12:18:40.822Z,11.90
2018-09-03T12:21:09.613Z,11.73
2018-09-03T12:23:38.270Z,12.27
2018-09-03T12:26:07.577Z,12.70
2018-09-03T12:28:36.194Z,12.57
2018-09-03T12:31:04.946Z,13.90
2018-09-03T12:33:33.920Z,12.93
2018-09-03T12:36:02.942Z,12.77
2018-09-03T12:38:31.698Z,11.57
2018-09-03T12:41:00.285Z,11.93
2018-09-03T12:43:28.970Z,13.87
2018-09-03T12:46:00.373Z,11.13
2018-09-03T12:48:30.014Z,12.90
2018-09-03T12:50:59.245Z,10.90
2018-09-03T12:53:28.230Z,11.70
2018-09-03T12:55:56.843Z,12.10
2018-09-03T12:58:25.422Z,13.80
2018-09-03T13:00:54.102Z,13.60
2018-09-03T13:03:22.688Z,12.13
2018-09-03T13:05:51.263Z,12.57
2018-09-03T13:08:19.850Z,11.37
2018-09-03T13:10:48.455Z,11.13
2018-09-03T13:13:17.054Z,11.03
2018-09-03T13:15:45.642Z,12.63
2018-09-03T13:18:14.231Z,11.93
2018-09-03T13:20:42.851Z,12.50
2018-09-03T13:23:11.784Z,13.20
2018-09-03T13:25:40.375Z,11.87
2018-09-03T13:28:08.954Z,11.90
2018-09-03T13:30:37.559Z,12.53
2018-09-03T13:33:06.151Z,11.97
2018-09-03T13:35:34.747Z,11.10
2018-09-03T13:38:03.313Z,12.30
2018-09-03T13:40:31.920Z,10.20
2018-09-03T13:43:00.530Z,12.43
2018-09-03T13:45:29.114Z,12.70
2018-09-03T13:47:57.715Z,10.90
2018-09-03T13:50:26.316Z,12.07
2018-09-03T13:52:54.941Z,15.40
2018-09-03T13:55:23.541Z,12.83
2018-09-03T13:57:52.118Z,10.87
2018-09-03T14:00:20.719Z,11.70
2018-09-03T14:02:49.312Z,11.07
2018-09-03T14:05:17.878Z,10.60
2018-09-03T14:07:46.532Z,11.93
2018-09-03T14:10:15.418Z,11.10
2018-09-03T14:12:43.966Z,11.07
2018-09-03T14:15:12.635Z,12.77
2018-09-03T14:17:41.263Z,11.13
2018-09-03T14:20:10.245Z,13.17
2018-09-03T14:22:38.790Z,11.40
2018-09-03T14:25:07.397Z,12.97
2018-09-03T14:27:35.957Z,10.57
2018-09-03T14:30:04.887Z,11.27
2018-09-03T14:32:33.440Z,11.13
2018-09-03T14:35:02.036Z,12.47
2018-09-03T14:37:30.655Z,12.20
2018-09-03T14:39:59.237Z,11.93
2018-09-03T14:42:27.837Z,10.83
2018-09-03T14:44:56.603Z,11.90
2018-09-03T14:47:25.227Z,11.53
2018-09-03T14:49:53.790Z,10.50
2018-09-03T14:52:22.490Z,11.87
2018-09-03T14:54:51.030Z,10.70
2018-09-03T14:57:19.643Z,10.93
2018-09-03T14:59:48.230Z,11.00
2018-09-03T15:02:16.894Z,11.00
2018-09-03T15:04:45.539Z,11.33
2018-09-03T15:07:14.128Z,11.40
2018-09-03T15:09:42.702Z,12.50
2018-09-03T15:12:11.350Z,10.87
2018-09-03T15:14:39.996Z,12.30
2018-09-03T15:17:08.818Z,12.30
2018-09-03T15:19:37.429Z,11.83
2018-09-03T15:22:06.058Z,13.00
2018-09-03T15:24:34.610Z,11.53
2018-09-03T15:27:03.326Z,11.43
2018-09-03T15:29:31.871Z,11.60
2018-09-03T15:32:00.538Z,12.27
2018-09-03T15:34:29.103Z,12.50
2018-09-03T15:36:57.702Z,13.03
2018-09-03T15:39:26.290Z,12.43
2018-09-03T15:41:54.927Z,11.70
2018-09-03T15:44:23.585Z,13.53
2018-09-03T15:46:52.187Z,12.43
2018-09-03T15:49:20.756Z,12.03
2018-09-03T15:51:49.338Z,14.00
2018-09-03T15:54:17.941Z,10.87
2018-09-03T15:56:46.522Z,10.50
2018-09-03T15:59:15.095Z,10.03
2018-09-03T16:01:43.855Z,12.60
2018-09-03T16:04:12.418Z,13.80
2018-09-03T16:06:41.021Z,12.23
2018-09-03T16:09:11.163Z,13.97
2018-09-03T16:11:40.137Z,14.47
2018-09-03T16:16:59.546Z,12.27
2018-09-03T16:19:28.036Z,12.83
2018-09-03T16:21:56.596Z,11.83
2018-09-03T16:24:25.107Z,11.83
2018-09-03T16:26:53.684Z,9.47
2018-09-03T16:29:22.220Z,12.50
2018-09-03T16:31:50.739Z,10.70
2018-09-03T16:34:19.292Z,11.80
2018-09-03T16:36:47.814Z,18.63
2018-09-03T16:39:16.357Z,12.43
2018-09-03T16:41:44.889Z,12.13
2018-09-03T16:44:13.437Z,12.77
2018-09-03T16:46:41.983Z,12.77
2018-09-03T16:49:10.737Z,12.53
2018-09-03T16:51:39.584Z,12.77
2018-09-03T16:54:08.091Z,11.07
2018-09-03T16:56:36.637Z,12.47
2018-09-03T16:59:05.124Z,12.63
2018-09-03T17:01:33.965Z,13.77
2018-09-03T17:04:02.259Z,12.77
2018-09-03T17:06:30.764Z,11.63
2018-09-03T17:08:59.269Z,12.43
2018-09-03T17:11:27.888Z,12.80
2018-09-03T17:13:56.379Z,7.97
2018-09-03T17:16:24.898Z,12.43
2018-09-03T17:18:53.974Z,10.23
2018-09-03T17:21:22.479Z,9.53
2018-09-03T17:23:51.047Z,12.27
2018-09-03T17:26:19.561Z,12.60
2018-09-03T17:28:48.196Z,12.43
2018-09-03T17:31:16.673Z,11.47
2018-09-03T17:33:45.396Z,8.70
2018-09-03T17:36:13.895Z,12.13
2018-09-03T17:38:42.844Z,12.73
2018-09-03T17:41:11.352Z,7.80
2018-09-03T17:43:39.870Z,11.00
2018-09-03T17:46:08.387Z,13.30
2018-09-03T17:48:36.969Z,13.10
2018-09-03T17:51:05.939Z,13.33
2018-09-03T17:53:34.457Z,12.03
2018-09-03T17:56:02.970Z,11.47
2018-09-03T17:58:31.665Z,9.50
2018-09-03T18:01:00.998Z,11.90
2018-09-03T18:03:29.631Z,13.57
2018-09-03T18:05:58.430Z,16.27
2018-09-03T18:08:27.559Z,11.43
2018-09-03T18:10:56.020Z,10.73
2018-09-03T18:13:24.521Z,9.90
2018-09-03T18:15:53.360Z,15.00
2018-09-03T18:18:21.896Z,12.60
2018-09-03T18:20:50.413Z,8.60
2018-09-03T18:23:18.949Z,15.37
2018-09-03T18:25:47.437Z,14.57
2018-09-03T18:28:15.932Z,12.73
2018-09-03T18:30:44.511Z,10.43
2018-09-03T18:33:13.012Z,13.60
2018-09-03T18:35:41.497Z,12.30
2018-09-03T18:38:10.144Z,13.73
2018-09-03T18:40:38.679Z,10.57
2018-09-03T18:43:07.229Z,13.77
2018-09-03T18:45:35.739Z,11.90
2018-09-03T18:48:04.293Z,13.67
2018-09-03T18:50:32.823Z,15.83
2018-09-03T18:53:01.415Z,16.03
2018-09-03T18:55:30.082Z,11.90
2018-09-03T18:57:58.636Z,13.23
2018-09-03T19:00:27.356Z,13.20
2018-09-03T19:02:55.771Z,14.17
2018-09-03T19:05:24.358Z,15.50
2018-09-03T19:07:52.868Z,13.27
2018-09-03T19:10:21.409Z,14.43
2018-09-03T19:12:49.940Z,13.77
2018-09-03T19:15:18.455Z,14.17
2018-09-03T19:17:46.975Z,12.37
2018-09-03T19:23:06.365Z,14.53
2018-09-03T19:25:34.907Z,13.03
2018-09-03T19:28:03.687Z,16.10
2018-09-03T19:30:32.219Z,15.87
2018-09-03T19:33:00.729Z,16.20
2018-09-03T19:35:29.245Z,13.93
2018-09-03T19:37:57.747Z,16.53
2018-09-03T19:40:26.289Z,15.37
2018-09-03T19:42:54.967Z,14.53
2018-09-03T19:45:23.517Z,14.10
2018-09-03T19:47:52.352Z,15.50
2018-09-03T19:50:20.889Z,13.63
2018-09-03T19:52:49.419Z,13.43
2018-09-03T19:55:17.991Z,14.77
2018-09-03T19:57:46.491Z,16.20
2018-09-03T20:00:15.031Z,15.03
2018-09-03T20:02:43.547Z,16.97
2018-09-03T20:05:12.071Z,16.83
2018-09-03T20:07:40.636Z,15.47
2018-09-03T20:10:09.401Z,16.10
2018-09-03T20:12:37.935Z,19.33
2018-09-03T20:15:08.132Z,18.20
2018-09-03T20:17:36.665Z,19.73
2018-09-03T20:20:05.968Z,14.53
2018-09-03T20:22:34.520Z,17.07
2018-09-03T20:25:03.075Z,14.63
2018-09-03T20:27:31.585Z,15.93
2018-09-03T20:30:00.139Z,16.40
2018-09-03T20:32:28.670Z,15.23
2018-09-03T20:34:57.186Z,15.87
2018-09-03T20:37:25.709Z,14.80
2018-09-03T20:39:54.232Z,14.77
2018-09-03T20:42:22.780Z,15.00
2018-09-03T20:44:51.397Z,13.80
2018-09-03T20:47:20.132Z,13.33
2018-09-03T20:49:48.651Z,14.90
2018-09-03T20:52:17.141Z,12.70
2018-09-03T20:54:45.673Z,14.27
2018-09-03T20:57:14.208Z,11.00
2018-09-03T20:59:42.764Z,13.07
2018-09-03T21:02:11.291Z,13.40
2018-09-03T21:04:39.817Z,15.17
2018-09-03T21:07:08.325Z,9.97
2018-09-03T21:09:37.448Z,13.47
2018-09-03T21:12:06.045Z,13.73
2018-09-03T21:14:34.621Z,11.57
2018-09-03T21:17:03.326Z,12.50
2018-09-03T21:19:31.844Z,14.00
2018-09-03T21:22:00.756Z,14.40
2018-09-03T21:24:29.140Z,13.67
2018-09-03T21:26:57.681Z,11.07
2018-09-03T21:29:26.207Z,13.23
2018-09-03T21:31:54.787Z,15.23
2018-09-03T21:34:23.640Z,9.97
2018-09-03T21:36:52.230Z,13.80
2018-09-03T21:39:20.765Z,12.20
2018-09-03T21:41:49.279Z,14.77
2018-09-03T21:44:17.865Z,12.60
2018-09-03T21:46:46.394Z,13.33
2018-09-03T21:49:14.971Z,12.00
2018-09-03T21:51:43.481Z,12.40
2018-09-03T21:54:12.132Z,11.83
2018-09-03T21:56:40.665Z,11.97
2018-09-03T21:59:09.188Z,11.23
2018-09-03T22:01:37.731Z,15.33
2018-09-03T22:04:06.282Z,14.17
2018-09-03T22:06:34.811Z,13.67
2018-09-03T22:09:04.680Z,14.73
2018-09-03T22:11:33.228Z,16.80
2018-09-03T22:14:01.773Z,9.97
2018-09-03T22:16:30.447Z,11.30
2018-09-03T22:18:58.965Z,14.83
2018-09-03T22:21:27.524Z,11.90
2018-09-03T22:23:56.032Z,12.67
2018-09-03T22:26:24.589Z,13.73
2018-09-03T22:28:53.107Z,11.83
2018-09-03T22:31:21.672Z,10.53
2018-09-03T22:33:50.223Z,14.40
2018-09-03T22:36:18.840Z,13.00
2018-09-03T22:38:47.360Z,8.90
2018-09-03T22:41:15.920Z,9.03
2018-09-03T22:43:44.575Z,9.03
2018-09-03T22:46:13.299Z,10.57
2018-09-03T22:48:41.876Z,13.93
2018-09-03T22:51:10.387Z,12.90
2018-09-03T22:53:38.901Z,11.67
2018-09-03T22:56:07.448Z,10.80
2018-09-03T22:58:35.979Z,12.90
2018-09-03T23:01:04.594Z,9.53
2018-09-03T23:03:33.114Z,10.47
2018-09-03T23:06:01.621Z,14.10
2018-09-03T23:08:30.167Z,11.83
2018-09-03T23:10:58.666Z,12.70
2018-09-03T23:13:27.204Z,12.20
2018-09-03T23:15:55.731Z,12.53
2018-09-03T23:18:24.827Z,11.87
2018-09-03T23:20:53.452Z,11.20
2018-09-03T23:23:21.977Z,11.57
2018-09-03T23:25:50.525Z,12.73
2018-09-03T23:28:19.114Z,13.07
2018-09-03T23:30:47.661Z,11.63
2018-09-03T23:33:16.182Z,11.27
2018-09-03T23:35:44.684Z,12.57
2018-09-03T23:38:13.218Z,14.57
2018-09-03T23:40:41.776Z,15.43
2018-09-03T23:43:10.296Z,10.47
2018-09-03T23:45:38.935Z,14.27
2018-09-03T23:48:07.512Z,14.90
2018-09-03T23:50:36.105Z,12.93
2018-09-03T23:53:04.956Z,12.10
2018-09-03T23:55:33.535Z,13.23
2018-09-03T23:58:02.112Z,9.53
